createdAt,value
2023-05-22T00:00:21.808Z,1.50
2023-05-22T00:01:24.942Z,1.00
2023-05-22T00:02:28.020Z,1.00
2023-05-22T00:03:31.266Z,1.00
2023-05-22T00:04:34.513Z,1.50
2023-05-22T00:05:37.827Z,2.50
2023-05-22T00:06:41.053Z,1.75
2023-05-22T00:07:44.292Z,1.00
2023-05-22T00:08:47.422Z,1.50
2023-05-22T00:09:50.537Z,2.00
2023-05-22T00:10:53.667Z,1.50
2023-05-22T00:11:56.896Z,1.00
2023-05-22T00:13:00.176Z,1.00
2023-05-22T00:14:03.486Z,1.00
2023-05-22T00:15:06.654Z,1.50
2023-05-22T00:16:09.724Z,0.50
2023-05-22T00:17:12.999Z,1.00
2023-05-22T00:18:16.329Z,1.00
2023-05-22T00:19:19.770Z,1.00
2023-05-22T00:20:22.816Z,1.00
2023-05-22T00:21:26.035Z,1.50
2023-05-22T00:22:29.339Z,1.50
2023-05-22T00:23:32.718Z,1.00
2023-05-22T00:24:35.997Z,1.75
2023-05-22T00:25:39.282Z,2.00
2023-05-22T00:26:51.062Z,2.00
2023-05-22T00:27:54.348Z,2.50
2023-05-22T00:28:57.434Z,0.50
2023-05-22T00:30:00.616Z,1.00
2023-05-22T00:31:03.794Z,0.50
2023-05-22T00:32:07.177Z,0.75
2023-05-22T00:33:10.283Z,1.50
2023-05-22T00:34:13.598Z,2.00
2023-05-22T00:35:16.737Z,1.75
2023-05-22T00:36:20.037Z,1.00
2023-05-22T00:37:23.112Z,1.00
2023-05-22T00:38:26.290Z,0.50
2023-05-22T00:39:29.350Z,1.00
2023-05-22T00:40:32.459Z,2.50
2023-05-22T00:41:35.620Z,1.50
2023-05-22T00:42:38.907Z,2.50
2023-05-22T00:43:42.116Z,1.00
2023-05-22T00:44:45.172Z,0.50
2023-05-22T00:45:48.439Z,0.75
2023-05-22T00:46:51.912Z,0.25
2023-05-22T00:47:55.133Z,0.75
2023-05-22T00:48:58.394Z,1.00
2023-05-22T00:50:01.488Z,1.20
2023-05-22T00:51:04.692Z,1.25
2023-05-22T00:52:07.838Z,1.50
2023-05-22T00:53:10.948Z,2.00
2023-05-22T00:54:13.991Z,1.50
2023-05-22T00:55:17.179Z,1.00
2023-05-22T00:56:20.568Z,0.50
2023-05-22T00:57:23.751Z,1.00
2023-05-22T00:58:26.951Z,0.50
2023-05-22T00:59:30.083Z,0.60
2023-05-22T01:00:33.100Z,1.50
2023-05-22T01:01:36.399Z,1.00
2023-05-22T01:02:39.777Z,1.50
2023-05-22T01:03:43.106Z,2.25
2023-05-22T01:04:46.223Z,2.00
2023-05-22T01:05:49.397Z,2.50
2023-05-22T01:06:52.596Z,2.25
2023-05-22T01:07:55.873Z,1.50
2023-05-22T01:08:59.051Z,2.00
2023-05-22T01:10:02.234Z,1.50
2023-05-22T01:11:05.616Z,1.00
2023-05-22T01:12:08.689Z,1.25
2023-05-22T01:13:11.893Z,1.00
2023-05-22T01:14:15.271Z,1.00
2023-05-22T01:15:18.549Z,1.25
2023-05-22T01:16:21.918Z,2.00
2023-05-22T01:17:25.020Z,1.00
2023-05-22T01:18:28.169Z,0.50
2023-05-22T01:19:31.295Z,0.75
2023-05-22T01:20:34.446Z,1.00
2023-05-22T01:21:37.546Z,0.75
2023-05-22T01:22:40.720Z,1.00
2023-05-22T01:23:43.871Z,0.50
2023-05-22T01:24:46.984Z,0.50
2023-05-22T01:25:50.371Z,0.50
2023-05-22T01:26:53.766Z,0.00
2023-05-22T01:27:57.310Z,1.00
2023-05-22T01:29:00.744Z,0.75
2023-05-22T01:30:04.044Z,1.50
2023-05-22T01:31:07.305Z,1.00
2023-05-22T01:32:10.797Z,1.00
2023-05-22T01:33:14.099Z,1.50
2023-05-22T01:34:17.587Z,1.00
2023-05-22T01:35:20.956Z,1.50
2023-05-22T01:36:24.376Z,1.50
2023-05-22T01:37:27.641Z,1.00
2023-05-22T01:38:31.022Z,0.50
2023-05-22T01:39:34.296Z,0.50
2023-05-22T01:40:37.834Z,0.75
2023-05-22T01:41:41.409Z,1.00
2023-05-22T01:42:44.760Z,1.00
2023-05-22T01:43:48.191Z,2.00
2023-05-22T01:44:51.415Z,1.00
2023-05-22T01:45:54.849Z,0.25
2023-05-22T01:46:58.411Z,1.75
2023-05-22T01:48:01.705Z,1.25
2023-05-22T01:49:05.000Z,0.25
2023-05-22T01:50:08.062Z,0.50
2023-05-22T01:51:11.558Z,1.00
2023-05-22T01:52:14.830Z,1.00
2023-05-22T01:53:18.335Z,1.00
2023-05-22T01:54:21.711Z,1.00
2023-05-22T01:55:24.993Z,1.00
2023-05-22T01:56:28.076Z,1.00
2023-05-22T01:57:31.467Z,1.75
2023-05-22T01:58:34.745Z,0.50
2023-05-22T01:59:38.239Z,2.50
2023-05-22T02:00:41.749Z,3.00
2023-05-22T02:01:45.160Z,1.50
2023-05-22T02:02:48.806Z,1.75
2023-05-22T02:03:52.496Z,1.00
2023-05-22T02:04:55.983Z,0.00
2023-05-22T02:06:09.023Z,0.50
2023-05-22T02:07:23.551Z,1.50
2023-05-22T02:08:30.009Z,1.75
2023-05-22T02:09:32.879Z,3.00
2023-05-22T02:10:36.238Z,3.50
2023-05-22T02:11:46.100Z,5.75
2023-05-22T02:12:49.499Z,8.00
2023-05-22T02:13:53.305Z,5.25
2023-05-22T02:15:00.373Z,4.75
2023-05-22T02:16:04.529Z,3.00
2023-05-22T02:17:08.909Z,2.50
2023-05-22T02:18:13.197Z,2.00
2023-05-22T02:19:16.860Z,1.50
2023-05-22T02:20:20.777Z,1.00
2023-05-22T02:21:38.621Z,0.50
2023-05-22T02:22:42.519Z,1.00
2023-05-22T02:23:47.428Z,1.00
2023-05-22T02:24:51.330Z,1.50
2023-05-22T02:26:01.263Z,2.00
2023-05-22T02:27:05.081Z,2.50
2023-05-22T02:28:08.454Z,1.00
2023-05-22T02:29:13.702Z,1.50
2023-05-22T02:30:16.877Z,1.50
2023-05-22T02:31:20.311Z,0.50
2023-05-22T02:32:23.682Z,1.50
2023-05-22T02:33:27.117Z,2.50
2023-05-22T02:34:30.735Z,1.50
2023-05-22T02:35:34.204Z,1.00
2023-05-22T02:36:37.583Z,6.50
2023-05-22T02:37:40.975Z,7.00
2023-05-22T02:38:44.460Z,1.00
2023-05-22T02:39:47.953Z,1.00
2023-05-22T02:40:51.861Z,1.00
2023-05-22T02:41:55.751Z,0.50
2023-05-22T02:42:59.040Z,1.00
2023-05-22T02:44:03.855Z,1.50
2023-05-22T02:45:07.248Z,0.50
2023-05-22T02:46:13.233Z,0.50
2023-05-22T02:47:16.888Z,0.50
2023-05-22T02:48:20.672Z,0.50
2023-05-22T02:49:30.863Z,0.75
2023-05-22T02:50:34.556Z,1.50
2023-05-22T02:51:38.236Z,2.00
2023-05-22T02:52:41.701Z,1.00
2023-05-22T02:53:46.328Z,1.50
2023-05-22T02:54:49.907Z,0.50
2023-05-22T02:55:53.395Z,2.50
2023-05-22T02:56:57.698Z,1.75
2023-05-22T02:58:06.417Z,2.75
2023-05-22T02:59:10.322Z,2.00
2023-05-22T03:00:14.014Z,1.00
2023-05-22T03:01:17.637Z,1.00
2023-05-22T03:02:21.319Z,0.00
2023-05-22T03:03:27.160Z,0.50
2023-05-22T03:04:30.646Z,0.50
2023-05-22T03:05:34.134Z,0.50
2023-05-22T03:06:37.515Z,0.50
2023-05-22T03:07:41.191Z,1.50
2023-05-22T03:08:45.294Z,0.25
2023-05-22T03:09:48.781Z,0.50
2023-05-22T03:10:52.991Z,1.00
2023-05-22T03:11:56.507Z,0.00
2023-05-22T03:12:59.968Z,0.00
2023-05-22T03:14:05.286Z,0.50
2023-05-22T03:15:08.579Z,1.00
2023-05-22T03:16:12.230Z,1.00
2023-05-22T03:17:16.294Z,1.00
2023-05-22T03:18:20.320Z,1.50
2023-05-22T03:19:24.635Z,1.00
2023-05-22T03:20:28.094Z,1.00
2023-05-22T03:21:31.775Z,2.00
2023-05-22T03:22:35.470Z,0.50
2023-05-22T03:23:39.162Z,1.50
2023-05-22T03:24:42.467Z,1.50
2023-05-22T03:25:45.834Z,1.50
2023-05-22T03:26:49.240Z,2.50
2023-05-22T03:27:53.845Z,1.50
2023-05-22T03:28:58.085Z,0.50
2023-05-22T03:30:01.867Z,1.00
2023-05-22T03:31:05.432Z,1.00
2023-05-22T03:32:09.129Z,1.00
2023-05-22T03:33:12.449Z,1.25
2023-05-22T03:34:16.419Z,1.00
2023-05-22T03:35:19.918Z,1.00
2023-05-22T03:36:23.447Z,0.75
2023-05-22T03:37:27.389Z,1.00
2023-05-22T03:38:31.087Z,1.00
2023-05-22T03:39:34.584Z,1.75
2023-05-22T03:40:38.216Z,1.25
2023-05-22T03:41:41.853Z,1.00
2023-05-22T03:42:45.138Z,1.50
2023-05-22T03:43:48.320Z,1.50
2023-05-22T03:44:51.705Z,0.50
2023-05-22T03:45:56.047Z,1.00
2023-05-22T03:46:59.818Z,0.75
2023-05-22T03:48:03.129Z,0.50
2023-05-22T03:49:06.650Z,1.00
2023-05-22T03:50:09.977Z,0.00
2023-05-22T03:51:23.682Z,1.00
2023-05-22T03:52:26.901Z,0.75
2023-05-22T03:53:31.086Z,0.50
2023-05-22T03:54:34.784Z,0.25
2023-05-22T03:55:39.574Z,0.50
2023-05-22T03:56:42.420Z,1.00
2023-05-22T03:57:45.470Z,0.50
2023-05-22T03:58:48.854Z,0.50
2023-05-22T03:59:52.433Z,0.50
2023-05-22T04:01:03.010Z,0.00
2023-05-22T04:02:19.767Z,0.00
2023-05-22T04:03:23.713Z,1.00
2023-05-22T04:04:27.518Z,2.00
2023-05-22T04:05:31.057Z,1.25
2023-05-22T04:06:34.873Z,0.00
2023-05-22T04:07:39.914Z,0.50
2023-05-22T04:08:43.381Z,1.00
2023-05-22T04:09:47.391Z,0.00
2023-05-22T04:10:51.096Z,1.00
2023-05-22T04:11:54.991Z,1.00
2023-05-22T04:12:58.468Z,1.50
2023-05-22T04:14:02.368Z,0.00
2023-05-22T04:15:07.089Z,0.00
2023-05-22T04:16:10.992Z,0.50
2023-05-22T04:17:14.994Z,1.00
2023-05-22T04:18:18.598Z,0.75
2023-05-22T04:19:22.783Z,0.50
2023-05-22T04:20:26.477Z,1.00
2023-05-22T04:21:30.272Z,2.50
2023-05-22T04:22:35.981Z,1.50
2023-05-22T04:23:39.058Z,2.00
2023-05-22T04:24:42.307Z,1.00
2023-05-22T04:25:45.558Z,0.60
2023-05-22T04:26:54.085Z,0.75
2023-05-22T04:27:57.447Z,0.50
2023-05-22T04:29:00.871Z,0.25
2023-05-22T04:30:04.558Z,0.00
2023-05-22T04:31:09.063Z,0.00
2023-05-22T04:32:12.748Z,1.00
2023-05-22T04:33:16.143Z,0.50
2023-05-22T04:34:19.612Z,1.00
2023-05-22T04:35:23.413Z,1.25
2023-05-22T04:36:30.309Z,1.00
2023-05-22T04:37:36.753Z,0.50
2023-05-22T04:40:02.284Z,0.00
2023-05-22T04:41:05.744Z,0.50
2023-05-22T04:42:10.260Z,0.50
2023-05-22T04:43:16.928Z,0.25
2023-05-22T04:44:20.538Z,0.00
2023-05-22T04:46:49.128Z,0.00
2023-05-22T04:47:52.770Z,0.00
2023-05-22T04:48:57.032Z,0.50
2023-05-22T04:50:00.382Z,0.50
2023-05-22T04:51:04.106Z,1.00
2023-05-22T04:52:07.467Z,1.25
2023-05-22T04:53:13.704Z,2.00
2023-05-22T04:54:16.792Z,1.00
2023-05-22T04:55:20.429Z,0.50
2023-05-22T04:56:34.713Z,0.00
2023-05-22T04:57:28.203Z,0.50
2023-05-22T04:58:31.980Z,1.00
2023-05-22T04:59:35.673Z,1.00
2023-05-22T05:00:39.305Z,1.00
2023-05-22T05:01:43.024Z,0.25
2023-05-22T05:02:48.130Z,1.00
2023-05-22T05:03:51.396Z,1.00
2023-05-22T05:04:54.862Z,0.50
2023-05-22T05:05:58.244Z,1.00
2023-05-22T05:07:01.629Z,1.00
2023-05-22T05:08:05.222Z,0.50
2023-05-22T05:09:08.931Z,0.25
2023-05-22T05:10:12.608Z,1.25
2023-05-22T05:11:15.898Z,2.75
2023-05-22T05:12:19.621Z,1.50
2023-05-22T05:13:23.285Z,1.50
2023-05-22T05:14:26.992Z,2.00
2023-05-22T05:15:30.588Z,1.00
2023-05-22T05:16:34.142Z,1.00
2023-05-22T05:17:37.981Z,1.75
2023-05-22T05:18:41.511Z,2.00
2023-05-22T05:19:45.459Z,2.00
2023-05-22T05:20:49.242Z,1.75
2023-05-22T05:21:53.763Z,1.25
2023-05-22T05:22:58.065Z,0.50
2023-05-22T05:24:01.657Z,2.00
2023-05-22T05:25:05.460Z,3.25
2023-05-22T05:26:09.048Z,2.50
2023-05-22T05:27:12.953Z,1.75
2023-05-22T05:28:16.638Z,1.00
2023-05-22T05:29:20.543Z,0.75
2023-05-22T05:30:24.225Z,1.50
2023-05-22T05:31:27.832Z,2.00
2023-05-22T05:32:31.629Z,2.50
2023-05-22T05:33:35.231Z,0.75
2023-05-22T05:34:39.920Z,2.00
2023-05-22T05:35:43.663Z,1.00
2023-05-22T05:36:47.219Z,2.00
2023-05-22T05:37:51.321Z,1.00
2023-05-22T05:38:55.223Z,1.50
2023-05-22T05:40:00.190Z,1.00
2023-05-22T05:41:03.768Z,0.50
2023-05-22T05:42:07.840Z,3.00
2023-05-22T05:43:12.076Z,2.50
2023-05-22T05:44:15.631Z,1.50
2023-05-22T05:45:19.128Z,2.00
2023-05-22T05:46:22.886Z,1.25
2023-05-22T05:47:27.055Z,1.50
2023-05-22T05:48:30.744Z,1.75
2023-05-22T05:49:35.890Z,0.00
2023-05-22T05:50:39.152Z,1.50
2023-05-22T05:51:43.223Z,2.00
2023-05-22T05:52:47.131Z,2.00
2023-05-22T05:53:50.408Z,1.50
2023-05-22T05:54:53.797Z,2.50
2023-05-22T05:55:58.012Z,2.00
2023-05-22T05:57:01.747Z,1.00
2023-05-22T05:58:05.587Z,1.00
2023-05-22T05:59:08.888Z,0.75
2023-05-22T06:00:12.471Z,2.00
2023-05-22T06:01:15.648Z,1.50
2023-05-22T06:02:19.056Z,1.50
2023-05-22T06:03:22.736Z,1.50
2023-05-22T06:04:26.133Z,1.50
2023-05-22T06:05:29.609Z,2.00
2023-05-22T06:06:33.826Z,1.00
2023-05-22T06:07:37.209Z,2.00
2023-05-22T06:08:40.397Z,1.50
2023-05-22T06:09:43.877Z,2.00
2023-05-22T06:10:47.987Z,2.00
2023-05-22T06:11:52.797Z,1.75
2023-05-22T06:12:56.295Z,0.75
2023-05-22T06:13:59.568Z,1.25
2023-05-22T06:15:03.264Z,0.75
2023-05-22T06:16:07.000Z,1.00
2023-05-22T06:17:11.202Z,0.75
2023-05-22T06:18:14.345Z,0.75
2023-05-22T06:19:17.879Z,1.25
2023-05-22T06:20:21.016Z,2.00
2023-05-22T06:21:24.418Z,2.00
2023-05-22T06:22:27.696Z,1.50
2023-05-22T06:23:30.769Z,1.50
2023-05-22T06:24:34.358Z,2.50
2023-05-22T06:25:37.854Z,2.50
2023-05-22T06:26:41.236Z,2.00
2023-05-22T06:27:44.382Z,2.50
2023-05-22T06:28:48.027Z,3.00
2023-05-22T06:29:53.376Z,3.00
2023-05-22T06:30:56.828Z,2.50
2023-05-22T06:32:00.680Z,2.00
2023-05-22T06:33:04.371Z,2.50
2023-05-22T06:34:07.878Z,2.50
2023-05-22T06:35:11.508Z,2.00
2023-05-22T06:36:14.699Z,2.00
2023-05-22T06:37:18.395Z,2.00
2023-05-22T06:38:22.043Z,2.00
2023-05-22T06:39:25.675Z,1.50
2023-05-22T06:40:29.120Z,1.00
2023-05-22T06:41:32.437Z,1.00
2023-05-22T06:42:35.639Z,2.50
2023-05-22T06:43:39.532Z,2.00
2023-05-22T06:44:43.312Z,2.00
2023-05-22T06:45:46.712Z,3.00
2023-05-22T06:46:50.185Z,3.00
2023-05-22T06:47:53.927Z,2.50
2023-05-22T06:48:57.190Z,2.50
2023-05-22T06:57:18.524Z,2.00
2023-05-22T06:58:22.033Z,6.00
2023-05-22T06:59:25.519Z,2.00
2023-05-22T07:00:28.830Z,2.75
2023-05-22T07:01:32.753Z,2.50
2023-05-22T07:02:36.055Z,2.00
2023-05-22T07:03:39.872Z,1.50
2023-05-22T07:04:43.562Z,2.25
2023-05-22T07:05:47.455Z,1.50
2023-05-22T07:06:50.985Z,1.00
2023-05-22T07:07:54.754Z,1.50
2023-05-22T07:08:58.359Z,2.00
2023-05-22T07:10:01.749Z,2.75
2023-05-22T07:11:05.216Z,2.25
2023-05-22T07:12:08.498Z,1.50
2023-05-22T07:13:11.923Z,2.00
2023-05-22T07:14:15.077Z,2.00
2023-05-22T07:15:19.682Z,2.50
2023-05-22T07:16:24.047Z,2.00
2023-05-22T07:17:27.843Z,1.75
2023-05-22T07:18:30.976Z,3.00
2023-05-22T07:19:34.963Z,3.20
2023-05-22T07:20:39.205Z,3.50
2023-05-22T07:21:43.176Z,3.00
2023-05-22T07:22:47.596Z,2.50
2023-05-22T07:23:51.599Z,2.00
2023-05-22T07:24:54.897Z,2.50
2023-05-22T07:26:00.012Z,3.00
2023-05-22T07:27:04.217Z,2.00
2023-05-22T07:28:07.641Z,2.75
2023-05-22T07:29:11.387Z,3.00
2023-05-22T07:30:15.094Z,2.50
2023-05-22T07:31:18.402Z,3.00
2023-05-22T07:32:22.399Z,3.00
2023-05-22T07:33:26.892Z,2.00
2023-05-22T07:34:30.191Z,1.50
2023-05-22T07:35:34.515Z,2.20
2023-05-22T07:36:38.173Z,2.50
2023-05-22T07:37:41.853Z,2.25
2023-05-22T07:38:46.172Z,2.00
2023-05-22T07:39:49.871Z,2.50
2023-05-22T07:40:53.572Z,3.50
2023-05-22T07:41:58.863Z,3.00
2023-05-22T07:43:02.005Z,2.50
2023-05-22T07:44:05.573Z,2.75
2023-05-22T07:45:09.288Z,3.00
2023-05-22T07:46:13.212Z,2.50
2023-05-22T07:47:16.447Z,2.50
2023-05-22T07:48:20.215Z,3.00
2023-05-22T07:49:24.150Z,3.00
2023-05-22T07:50:27.726Z,3.50
2023-05-22T07:51:31.014Z,3.00
2023-05-22T07:52:34.758Z,2.50
2023-05-22T07:53:38.291Z,2.50
2023-05-22T07:54:42.465Z,2.50
2023-05-22T07:55:45.998Z,3.25
2023-05-22T07:56:49.795Z,3.50
2023-05-22T07:57:53.069Z,2.50
2023-05-22T07:58:56.872Z,2.50
2023-05-22T08:00:00.559Z,3.00
2023-05-22T08:01:03.952Z,3.25
2023-05-22T08:02:07.924Z,2.75
2023-05-22T08:03:11.433Z,2.75
2023-05-22T08:04:14.960Z,3.00
2023-05-22T08:05:18.467Z,4.00
2023-05-22T08:06:21.899Z,3.75
2023-05-22T08:07:25.702Z,3.00
2023-05-22T08:08:31.987Z,3.25
2023-05-22T08:09:36.161Z,4.00
2023-05-22T08:11:43.752Z,3.50
2023-05-22T08:12:47.166Z,3.00
2023-05-22T08:13:50.544Z,2.50
2023-05-22T08:14:53.598Z,3.00
2023-05-22T08:16:00.415Z,3.00
2023-05-22T08:17:02.194Z,4.00
2023-05-22T08:18:05.616Z,4.00
2023-05-22T08:19:09.346Z,3.00
2023-05-22T08:20:12.572Z,2.50
2023-05-22T08:21:15.978Z,4.75
2023-05-22T08:22:19.366Z,6.00
2023-05-22T08:23:22.753Z,5.50
2023-05-22T08:24:26.249Z,4.00
2023-05-22T08:25:30.362Z,4.00
2023-05-22T08:26:33.671Z,5.00
2023-05-22T08:27:36.903Z,4.50
2023-05-22T08:28:40.501Z,4.00
2023-05-22T08:29:43.597Z,4.00
2023-05-22T08:30:47.366Z,4.00
2023-05-22T08:31:51.217Z,4.50
2023-05-22T08:32:54.402Z,5.00
2023-05-22T08:33:57.634Z,4.75
2023-05-22T08:35:01.427Z,5.50
2023-05-22T08:36:05.013Z,9.00
2023-05-22T08:37:08.412Z,9.25
2023-05-22T08:38:13.032Z,6.50
2023-05-22T08:39:16.614Z,9.00
2023-05-22T08:40:19.876Z,7.00
2023-05-22T08:41:23.188Z,4.50
2023-05-22T08:42:26.768Z,4.00
2023-05-22T08:43:30.467Z,3.00
2023-05-22T08:44:33.863Z,4.00
2023-05-22T08:45:37.350Z,3.75
2023-05-22T08:46:41.072Z,3.00
2023-05-22T08:47:44.470Z,3.50
2023-05-22T08:48:48.250Z,4.50
2023-05-22T08:49:52.158Z,4.75
2023-05-22T08:50:55.608Z,4.00
2023-05-22T08:51:59.198Z,4.50
2023-05-22T08:53:02.502Z,5.00
2023-05-22T08:54:06.000Z,4.00
2023-05-22T08:55:09.359Z,4.00
2023-05-22T08:56:14.292Z,4.50
2023-05-22T08:57:17.566Z,5.00
2023-05-22T08:58:20.852Z,4.50
2023-05-22T08:59:24.079Z,3.50
2023-05-22T09:00:27.502Z,4.50
2023-05-22T09:01:30.704Z,4.50
2023-05-22T09:02:34.099Z,4.00
2023-05-22T09:03:37.514Z,4.00
2023-05-22T09:04:40.770Z,4.00
2023-05-22T09:05:44.454Z,3.50
2023-05-22T09:06:48.371Z,2.50
2023-05-22T09:07:51.648Z,3.50
2023-05-22T09:08:55.026Z,4.25
2023-05-22T09:09:59.227Z,4.00
2023-05-22T09:11:02.834Z,3.00
2023-05-22T09:12:06.214Z,3.50
2023-05-22T09:13:09.927Z,4.00
2023-05-22T09:14:13.412Z,3.50
2023-05-22T09:15:16.702Z,3.00
2023-05-22T09:16:20.335Z,4.50
2023-05-22T09:17:23.847Z,5.00
2023-05-22T09:18:27.052Z,3.50
2023-05-22T09:19:30.306Z,3.50
2023-05-22T09:20:33.920Z,4.50
2023-05-22T09:21:37.612Z,4.00
2023-05-22T09:22:41.034Z,3.50
2023-05-22T09:23:44.312Z,3.00
2023-05-22T09:24:48.721Z,3.00
2023-05-22T09:25:52.055Z,5.00
2023-05-22T09:26:55.284Z,5.75
2023-05-22T09:27:58.478Z,3.75
2023-05-22T09:29:02.051Z,3.50
2023-05-22T09:30:05.318Z,4.50
2023-05-22T09:31:08.735Z,4.75
2023-05-22T09:32:11.989Z,4.00
2023-05-22T09:33:15.280Z,4.75
2023-05-22T09:34:18.973Z,4.25
2023-05-22T09:35:22.470Z,4.50
2023-05-22T09:36:25.863Z,4.50
2023-05-22T09:37:29.342Z,4.50
2023-05-22T09:38:32.831Z,4.50
2023-05-22T09:39:36.015Z,5.50
2023-05-22T09:40:39.714Z,5.75
2023-05-22T09:41:43.298Z,4.50
2023-05-22T09:42:46.808Z,4.25
2023-05-22T09:43:51.402Z,5.00
2023-05-22T09:44:55.090Z,5.00
2023-05-22T09:45:58.628Z,4.00
2023-05-22T09:47:01.985Z,4.00
2023-05-22T09:48:06.007Z,5.75
2023-05-22T09:49:09.277Z,6.00
2023-05-22T09:50:13.271Z,6.00
2023-05-22T09:51:16.759Z,7.00
2023-05-22T09:52:20.447Z,7.00
2023-05-22T09:53:24.145Z,8.00
2023-05-22T09:54:28.078Z,9.00
2023-05-22T09:55:31.422Z,9.50
2023-05-22T09:56:39.341Z,7.50
2023-05-22T09:57:39.629Z,6.00
2023-05-22T09:58:43.097Z,6.00
2023-05-22T09:59:46.724Z,6.25
2023-05-22T10:00:50.407Z,6.50
2023-05-22T10:01:53.967Z,8.50
2023-05-22T10:03:00.912Z,10.50
2023-05-22T10:04:05.441Z,10.25
2023-05-22T10:05:08.868Z,10.00
2023-05-22T10:06:12.761Z,8.50
2023-05-22T10:07:16.933Z,5.50
2023-05-22T10:08:20.675Z,6.00
2023-05-22T10:09:24.252Z,8.00
2023-05-22T10:10:27.649Z,7.00
2023-05-22T10:11:31.673Z,8.00
2023-05-22T10:12:35.348Z,6.50
2023-05-22T10:13:38.751Z,6.00
2023-05-22T10:14:42.118Z,6.50
2023-05-22T10:15:45.648Z,5.50
2023-05-22T10:16:48.983Z,5.00
2023-05-22T10:17:52.565Z,6.25
2023-05-22T10:18:56.242Z,8.00
2023-05-22T10:20:00.181Z,9.50
2023-05-22T10:21:03.866Z,7.00
2023-05-22T10:22:07.763Z,9.50
2023-05-22T10:23:11.465Z,7.00
2023-05-22T10:24:15.260Z,5.50
2023-05-22T10:25:18.760Z,7.50
2023-05-22T10:26:22.126Z,10.00
2023-05-22T10:27:26.544Z,10.00
2023-05-22T10:28:30.513Z,9.50
2023-05-22T10:29:33.851Z,10.50
2023-05-22T10:30:37.113Z,10.00
2023-05-22T10:31:40.720Z,8.50
2023-05-22T10:32:44.510Z,8.50
2023-05-22T10:33:48.226Z,9.00
2023-05-22T10:34:52.084Z,9.50
2023-05-22T10:35:55.505Z,10.25
2023-05-22T10:37:13.060Z,9.50
2023-05-22T10:38:03.251Z,10.00
2023-05-22T10:39:06.558Z,9.50
2023-05-22T10:40:09.952Z,8.00
2023-05-22T10:41:13.242Z,8.50
2023-05-22T10:42:16.616Z,9.00
2023-05-22T10:43:19.898Z,6.50
2023-05-22T10:44:23.300Z,7.40
2023-05-22T10:45:27.063Z,8.50
2023-05-22T10:46:30.691Z,9.00
2023-05-22T10:47:34.341Z,9.25
2023-05-22T10:48:37.557Z,8.50
2023-05-22T10:49:41.039Z,8.50
2023-05-22T10:50:44.338Z,9.00
2023-05-22T10:51:47.704Z,8.50
2023-05-22T10:52:51.009Z,8.75
2023-05-22T10:53:54.288Z,9.00
2023-05-22T10:54:57.454Z,9.00
2023-05-22T10:56:00.656Z,8.25
2023-05-22T10:57:03.837Z,8.00
2023-05-22T10:58:07.319Z,8.00
2023-05-22T10:59:11.133Z,7.50
2023-05-22T11:00:14.483Z,8.00
2023-05-22T11:01:18.249Z,8.75
2023-05-22T11:02:22.184Z,7.00
2023-05-22T11:03:25.682Z,8.25
2023-05-22T11:04:29.632Z,11.50
2023-05-22T11:05:32.973Z,6.50
2023-05-22T11:06:36.157Z,8.50
2023-05-22T11:07:39.636Z,9.00
2023-05-22T11:08:43.154Z,9.50
2023-05-22T11:09:46.624Z,9.00
2023-05-22T11:10:50.509Z,9.25
2023-05-22T11:11:54.011Z,9.50
2023-05-22T11:12:57.895Z,10.50
2023-05-22T11:14:01.206Z,9.25
2023-05-22T11:15:04.572Z,9.00
2023-05-22T11:16:08.513Z,9.00
2023-05-22T11:17:12.323Z,9.00
2023-05-22T11:18:16.137Z,9.25
2023-05-22T11:19:23.854Z,7.00
2023-05-22T11:20:24.391Z,9.75
2023-05-22T11:21:27.982Z,9.50
2023-05-22T11:22:31.786Z,8.50
2023-05-22T11:23:35.158Z,9.25
2023-05-22T11:24:38.849Z,8.50
2023-05-22T11:25:42.539Z,6.75
2023-05-22T11:26:46.047Z,7.00
2023-05-22T11:27:49.444Z,9.00
2023-05-22T11:28:52.823Z,8.00
2023-05-22T11:29:56.806Z,8.00
2023-05-22T11:31:00.342Z,7.25
2023-05-22T11:32:04.898Z,7.50
2023-05-22T11:33:08.453Z,9.50
2023-05-22T11:34:12.094Z,8.00
2023-05-22T11:35:15.599Z,8.50
2023-05-22T11:36:19.282Z,10.50
2023-05-22T11:37:22.780Z,9.00
2023-05-22T11:38:26.463Z,9.00
2023-05-22T11:39:30.144Z,9.00
2023-05-22T11:40:33.589Z,9.25
2023-05-22T11:41:37.143Z,9.00
2023-05-22T11:42:41.027Z,8.50
2023-05-22T11:43:44.413Z,9.00
2023-05-22T11:44:48.305Z,9.00
2023-05-22T11:45:51.911Z,7.50
2023-05-22T11:46:55.635Z,8.50
2023-05-22T11:47:59.339Z,9.50
2023-05-22T11:49:02.819Z,9.00
2023-05-22T11:50:06.375Z,9.00
2023-05-22T11:51:10.426Z,7.50
2023-05-22T11:52:14.166Z,6.50
2023-05-22T11:53:17.560Z,7.00
2023-05-22T11:54:21.257Z,6.00
2023-05-22T11:56:47.573Z,9.00
2023-05-22T11:57:51.178Z,8.75
2023-05-22T11:58:54.679Z,8.50
2023-05-22T11:59:58.262Z,8.00
2023-05-22T12:01:02.074Z,8.00
2023-05-22T12:02:06.186Z,8.00
2023-05-22T12:03:09.396Z,5.50
2023-05-22T12:04:12.760Z,5.20
2023-05-22T12:05:16.428Z,6.50
2023-05-22T12:06:20.009Z,9.00
2023-05-22T12:07:23.491Z,10.25
2023-05-22T12:08:30.818Z,10.00
2023-05-22T12:09:34.152Z,9.50
2023-05-22T12:10:37.670Z,7.50
2023-05-22T12:11:41.233Z,8.50
2023-05-22T12:12:44.737Z,10.25
2023-05-22T12:13:49.519Z,10.00
2023-05-22T12:14:52.321Z,10.00
2023-05-22T12:15:56.144Z,9.25
2023-05-22T12:16:59.601Z,9.00
2023-05-22T12:18:02.848Z,9.50
2023-05-22T12:19:06.973Z,9.50
2023-05-22T12:20:10.888Z,10.00
2023-05-22T12:21:14.487Z,10.00
2023-05-22T12:22:17.797Z,7.25
2023-05-22T12:23:21.298Z,7.50
2023-05-22T12:24:24.544Z,7.00
2023-05-22T12:25:27.919Z,5.50
2023-05-22T12:26:31.151Z,4.50
2023-05-22T12:27:36.547Z,5.20
2023-05-22T12:28:39.123Z,8.00
2023-05-22T12:29:42.302Z,8.50
2023-05-22T12:30:45.630Z,8.00
2023-05-22T12:31:49.192Z,8.50
2023-05-22T12:32:52.386Z,9.50
2023-05-22T12:33:55.875Z,7.00
2023-05-22T12:34:59.360Z,7.00
2023-05-22T12:36:02.574Z,7.00
2023-05-22T12:37:06.026Z,8.00
2023-05-22T12:38:09.618Z,9.00
2023-05-22T12:39:12.984Z,9.50
2023-05-22T12:40:16.188Z,11.00
2023-05-22T12:41:19.563Z,10.75
2023-05-22T12:42:23.069Z,10.50
2023-05-22T12:43:26.635Z,10.00
2023-05-22T12:44:30.109Z,8.75
2023-05-22T12:45:33.291Z,8.00
2023-05-22T12:46:36.521Z,8.50
2023-05-22T12:47:40.289Z,8.00
2023-05-22T12:48:44.279Z,8.50
2023-05-22T12:49:47.609Z,8.50
2023-05-22T12:50:51.488Z,8.50
2023-05-22T12:51:55.369Z,8.75
2023-05-22T12:52:58.854Z,9.25
2023-05-22T12:54:02.451Z,7.50
2023-05-22T12:55:05.538Z,9.00
2023-05-22T12:56:08.734Z,10.50
2023-05-22T12:57:12.195Z,9.00
2023-05-22T12:58:15.674Z,9.50
2023-05-22T12:59:20.670Z,9.50
2023-05-22T13:00:23.287Z,10.50
2023-05-22T13:01:27.173Z,10.00
2023-05-22T13:02:30.330Z,9.00
2023-05-22T13:03:33.656Z,8.00
2023-05-22T13:04:36.933Z,8.75
2023-05-22T13:05:40.457Z,7.75
2023-05-22T13:06:44.195Z,8.50
2023-05-22T13:07:49.086Z,9.00
2023-05-22T13:08:52.512Z,9.00
2023-05-22T13:09:55.687Z,8.50
2023-05-22T13:10:59.090Z,9.00
2023-05-22T13:12:02.370Z,10.50
2023-05-22T13:13:05.650Z,10.50
2023-05-22T13:14:08.927Z,10.50
2023-05-22T13:15:12.331Z,10.00
2023-05-22T13:16:15.569Z,12.00
2023-05-22T13:17:18.992Z,12.00
2023-05-22T13:18:22.290Z,11.00
2023-05-22T13:19:25.417Z,10.50
2023-05-22T13:20:28.861Z,12.60
2023-05-22T13:21:32.344Z,13.00
2023-05-22T13:22:36.050Z,11.50
2023-05-22T13:23:39.524Z,13.00
2023-05-22T13:24:43.111Z,12.50
2023-05-22T13:25:46.497Z,13.25
2023-05-22T13:26:50.090Z,17.25
2023-05-22T13:27:53.699Z,17.00
2023-05-22T13:28:59.329Z,12.25
2023-05-22T13:30:02.809Z,14.25
2023-05-22T13:31:06.809Z,15.50
2023-05-22T13:32:10.180Z,15.00
2023-05-22T13:33:16.044Z,17.00
2023-05-22T13:34:19.468Z,17.25
2023-05-22T13:35:22.814Z,15.50
2023-05-22T13:36:26.091Z,14.50
2023-05-22T13:37:32.149Z,17.25
2023-05-22T13:38:35.328Z,16.50
2023-05-22T13:39:38.737Z,14.75
2023-05-22T13:40:41.920Z,15.25
2023-05-22T13:41:45.284Z,12.00
2023-05-22T13:42:48.973Z,12.00
2023-05-22T13:43:55.314Z,14.00
2023-05-22T13:44:59.003Z,11.00
2023-05-22T13:46:05.392Z,13.75
2023-05-22T13:47:09.855Z,13.50
2023-05-22T13:48:13.411Z,13.00
2023-05-22T13:49:17.066Z,13.00
2023-05-22T13:50:23.843Z,14.25
2023-05-22T13:51:27.834Z,12.25
2023-05-22T13:52:31.525Z,12.00
2023-05-22T13:53:35.215Z,11.50
2023-05-22T13:54:38.811Z,11.00
2023-05-22T13:55:42.196Z,10.75
2023-05-22T13:56:45.792Z,11.00
2023-05-22T13:57:49.389Z,11.00
2023-05-22T13:58:53.588Z,11.50
2023-05-22T14:00:00.057Z,10.50
2023-05-22T14:01:03.720Z,10.50
2023-05-22T14:02:09.926Z,10.25
2023-05-22T14:03:13.554Z,11.00
2023-05-22T14:04:17.081Z,11.25
2023-05-22T14:05:21.074Z,11.50
2023-05-22T14:06:24.874Z,11.50
2023-05-22T14:07:32.964Z,10.75
2023-05-22T14:08:36.754Z,11.00
2023-05-22T14:09:40.246Z,11.50
2023-05-22T14:10:44.177Z,11.00
2023-05-22T14:11:47.950Z,10.75
2023-05-22T14:12:51.943Z,9.75
2023-05-22T14:13:55.632Z,9.00
2023-05-22T14:14:59.346Z,10.00
2023-05-22T14:16:02.844Z,11.00
2023-05-22T14:17:09.332Z,11.25
2023-05-22T14:18:13.004Z,9.50